CheckWX is a tool to help pilots better visualize weather data.  It is not intended as a substitute for an official pre-flight weather briefing.

03:12:58 UTC

KDMW METAR
Carroll County Regional / Jack B Poage Field Airport
Westminster, Maryland, USA
Current

33 mins ago

KDMW 230240Z AUTO 15003KT 10SM CLR 25/21 A3005 RMK AO2
Observed
Sep-23 @ 02:40 UTC
Wind
  • 150° at 3 KTS
Visibility
10 SM
Flight Rules
VFR
Cloud Levels
  • Clear skies
Temperature
25°C / 77°F
Dewpoint
21°C / 70°F
Humidity
79%
Altimeter
30.05" Hg
Pressure
1017.62 hPa
Previous

53 mins ago

KDMW 230220Z AUTO 17004KT 10SM CLR 25/21 A3005 RMK AO2
Observed
Sep-23 @ 02:20 UTC
Wind
  • 170° at 4 KTS
Visibility
10 SM
Flight Rules
VFR
Cloud Levels
  • Clear skies
Temperature
25°C / 77°F
Dewpoint
21°C / 70°F
Humidity
79%
Altimeter
30.05" Hg
Pressure
1017.62 hPa
Previous

1 hour ago

KDMW 230200Z AUTO 15004KT 10SM CLR 26/21 A3005 RMK AO2
Observed
Sep-23 @ 02:00 UTC
Wind
  • 150° at 4 KTS
Visibility
10 SM
Flight Rules
VFR
Cloud Levels
  • Clear skies
Temperature
26°C / 79°F
Dewpoint
21°C / 70°F
Humidity
74%
Altimeter
30.05" Hg
Pressure
1017.62 hPa